sensor_id;sensor_type;location;lat;lon;timestamp;temperature;humidity
18085;DHT22;9169;44.492;11.372;2022-10-31T00:00:48;21.00;49.10
18085;DHT22;9169;44.492;11.372;2022-10-31T00:03:15;21.00;49.10
18085;DHT22;9169;44.492;11.372;2022-10-31T00:05:44;21.00;49.10
18085;DHT22;9169;44.492;11.372;2022-10-31T00:08:12;21.00;49.10
18085;DHT22;9169;44.492;11.372;2022-10-31T00:10:39;21.00;49.10
18085;DHT22;9169;44.492;11.372;2022-10-31T00:13:07;20.90;49.10
18085;DHT22;9169;44.492;11.372;2022-10-31T00:15:36;20.90;49.10
18085;DHT22;9169;44.492;11.372;2022-10-31T00:18:04;20.90;49.10
18085;DHT22;9169;44.492;11.372;2022-10-31T00:20:32;20.90;49.10
18085;DHT22;9169;44.492;11.372;2022-10-31T00:22:59;20.90;49.10
18085;DHT22;9169;44.492;11.372;2022-10-31T00:25:28;20.90;49.10
18085;DHT22;9169;44.492;11.372;2022-10-31T00:27:55;20.80;49.60
18085;DHT22;9169;44.492;11.372;2022-10-31T00:30:22;20.80;49.00
18085;DHT22;9169;44.492;11.372;2022-10-31T00:32:50;20.80;49.00
18085;DHT22;9169;44.492;11.372;2022-10-31T00:35:17;20.80;49.00
18085;DHT22;9169;44.492;11.372;2022-10-31T00:37:44;20.80;49.00
18085;DHT22;9169;44.492;11.372;2022-10-31T00:40:12;20.80;49.00
18085;DHT22;9169;44.492;11.372;2022-10-31T00:42:39;20.80;49.00
18085;DHT22;9169;44.492;11.372;2022-10-31T00:45:08;20.80;49.00
18085;DHT22;9169;44.492;11.372;2022-10-31T00:47:35;20.70;48.90
18085;DHT22;9169;44.492;11.372;2022-10-31T00:50:04;20.70;49.00
18085;DHT22;9169;44.492;11.372;2022-10-31T00:52:31;20.70;49.10
18085;DHT22;9169;44.492;11.372;2022-10-31T00:54:59;20.70;49.20
18085;DHT22;9169;44.492;11.372;2022-10-31T00:57:26;20.70;49.30
18085;DHT22;9169;44.492;11.372;2022-10-31T00:59:53;20.60;49.20
18085;DHT22;9169;44.492;11.372;2022-10-31T01:02:20;20.60;49.40
18085;DHT22;9169;44.492;11.372;2022-10-31T01:04:47;20.50;49.40
18085;DHT22;9169;44.492;11.372;2022-10-31T01:07:15;20.50;49.50
18085;DHT22;9169;44.492;11.372;2022-10-31T01:09:42;20.40;49.60
18085;DHT22;9169;44.492;11.372;2022-10-31T01:12:09;20.40;49.70
18085;DHT22;9169;44.492;11.372;2022-10-31T01:14:36;20.40;49.70
18085;DHT22;9169;44.492;11.372;2022-10-31T01:17:03;20.40;49.80
18085;DHT22;9169;44.492;11.372;2022-10-31T01:19:30;20.40;49.90
18085;DHT22;9169;44.492;11.372;2022-10-31T01:21:57;20.40;49.90
18085;DHT22;9169;44.492;11.372;2022-10-31T01:24:25;20.40;49.90
18085;DHT22;9169;44.492;11.372;2022-10-31T01:26:53;20.30;49.80
18085;DHT22;9169;44.492;11.372;2022-10-31T01:29:20;20.40;49.80
18085;DHT22;9169;44.492;11.372;2022-10-31T01:31:47;20.40;49.60
18085;DHT22;9169;44.492;11.372;2022-10-31T01:34:15;20.40;49.60
18085;DHT22;9169;44.492;11.372;2022-10-31T01:36:44;20.40;49.50
18085;DHT22;9169;44.492;11.372;2022-10-31T01:39:14;20.40;49.40
18085;DHT22;9169;44.492;11.372;2022-10-31T01:41:45;20.40;49.30
18085;DHT22;9169;44.492;11.372;2022-10-31T01:44:51;20.40;49.30
18085;DHT22;9169;44.492;11.372;2022-10-31T01:47:21;20.40;49.50
18085;DHT22;9169;44.492;11.372;2022-10-31T01:49:54;20.40;49.40
18085;DHT22;9169;44.492;11.372;2022-10-31T01:52:25;20.40;49.40
18085;DHT22;9169;44.492;11.372;2022-10-31T01:54:57;20.40;49.40
18085;DHT22;9169;44.492;11.372;2022-10-31T01:57:27;20.40;49.50
18085;DHT22;9169;44.492;11.372;2022-10-31T01:59:59;20.40;49.50
18085;DHT22;9169;44.492;11.372;2022-10-31T02:02:28;20.40;49.50
18085;DHT22;9169;44.492;11.372;2022-10-31T02:04:57;20.30;49.40
18085;DHT22;9169;44.492;11.372;2022-10-31T02:07:30;20.30;49.50
18085;DHT22;9169;44.492;11.372;2022-10-31T02:09:59;20.30;49.50
18085;DHT22;9169;44.492;11.372;2022-10-31T02:12:29;20.30;49.50
18085;DHT22;9169;44.492;11.372;2022-10-31T02:14:57;20.30;49.50
18085;DHT22;9169;44.492;11.372;2022-10-31T02:17:25;20.30;49.40
18085;DHT22;9169;44.492;11.372;2022-10-31T02:19:57;20.30;49.40
18085;DHT22;9169;44.492;11.372;2022-10-31T02:22:30;20.30;49.40
18085;DHT22;9169;44.492;11.372;2022-10-31T02:25:13;20.30;49.50
18085;DHT22;9169;44.492;11.372;2022-10-31T02:28:07;20.30;49.50
18085;DHT22;9169;44.492;11.372;2022-10-31T02:30:55;20.30;49.50
18085;DHT22;9169;44.492;11.372;2022-10-31T02:33:28;20.30;49.50
18085;DHT22;9169;44.492;11.372;2022-10-31T02:36:01;20.30;49.50
18085;DHT22;9169;44.492;11.372;2022-10-31T02:38:39;20.30;49.50
18085;DHT22;9169;44.492;11.372;2022-10-31T02:41:15;20.20;49.50
18085;DHT22;9169;44.492;11.372;2022-10-31T02:43:57;20.20;49.50
18085;DHT22;9169;44.492;11.372;2022-10-31T02:46:34;20.20;49.40
18085;DHT22;9169;44.492;11.372;2022-10-31T02:49:07;20.20;49.40
18085;DHT22;9169;44.492;11.372;2022-10-31T02:51:37;20.20;49.40
18085;DHT22;9169;44.492;11.372;2022-10-31T02:54:14;20.20;49.30
18085;DHT22;9169;44.492;11.372;2022-10-31T02:56:42;20.20;49.40
18085;DHT22;9169;44.492;11.372;2022-10-31T02:59:09;20.20;49.40
18085;DHT22;9169;44.492;11.372;2022-10-31T03:01:52;20.20;49.40
18085;DHT22;9169;44.492;11.372;2022-10-31T03:04:44;20.20;49.50
18085;DHT22;9169;44.492;11.372;2022-10-31T03:07:20;20.10;49.30
18085;DHT22;9169;44.492;11.372;2022-10-31T03:09:55;20.10;49.30
18085;DHT22;9169;44.492;11.372;2022-10-31T03:12:29;20.10;49.30
18085;DHT22;9169;44.492;11.372;2022-10-31T03:15:03;20.10;49.30
18085;DHT22;9169;44.492;11.372;2022-10-31T03:17:45;20.10;49.30
18085;DHT22;9169;44.492;11.372;2022-10-31T03:20:17;20.10;49.30
18085;DHT22;9169;44.492;11.372;2022-10-31T03:22:47;20.00;49.20
18085;DHT22;9169;44.492;11.372;2022-10-31T03:25:15;20.00;49.20
18085;DHT22;9169;44.492;11.372;2022-10-31T03:27:44;20.00;49.20
18085;DHT22;9169;44.492;11.372;2022-10-31T03:30:13;20.00;49.20
18085;DHT22;9169;44.492;11.372;2022-10-31T03:32:43;20.00;49.30
18085;DHT22;9169;44.492;11.372;2022-10-31T03:35:15;20.00;49.40
18085;DHT22;9169;44.492;11.372;2022-10-31T03:37:44;20.00;49.40
18085;DHT22;9169;44.492;11.372;2022-10-31T03:40:13;20.00;49.40
18085;DHT22;9169;44.492;11.372;2022-10-31T03:42:43;20.00;49.50
18085;DHT22;9169;44.492;11.372;2022-10-31T03:45:16;19.90;49.60
18085;DHT22;9169;44.492;11.372;2022-10-31T03:47:48;19.90;49.60
18085;DHT22;9169;44.492;11.372;2022-10-31T03:50:15;19.90;49.50
18085;DHT22;9169;44.492;11.372;2022-10-31T03:52:45;19.90;49.50
18085;DHT22;9169;44.492;11.372;2022-10-31T03:55:18;19.90;49.40
18085;DHT22;9169;44.492;11.372;2022-10-31T03:57:51;19.90;49.40
18085;DHT22;9169;44.492;11.372;2022-10-31T04:00:19;19.90;49.30
18085;DHT22;9169;44.492;11.372;2022-10-31T04:02:53;19.90;49.40
18085;DHT22;9169;44.492;11.372;2022-10-31T04:05:22;19.90;49.40
18085;DHT22;9169;44.492;11.372;2022-10-31T04:07:53;19.80;49.20
18085;DHT22;9169;44.492;11.372;2022-10-31T04:10:21;19.80;49.30
18085;DHT22;9169;44.492;11.372;2022-10-31T04:12:52;19.80;49.30
18085;DHT22;9169;44.492;11.372;2022-10-31T04:15:22;19.80;49.20
18085;DHT22;9169;44.492;11.372;2022-10-31T04:17:55;19.80;49.20
18085;DHT22;9169;44.492;11.372;2022-10-31T04:20:30;19.80;49.20
18085;DHT22;9169;44.492;11.372;2022-10-31T04:22:58;19.80;49.20
18085;DHT22;9169;44.492;11.372;2022-10-31T04:25:27;19.80;49.20
18085;DHT22;9169;44.492;11.372;2022-10-31T04:27:54;19.80;49.20
18085;DHT22;9169;44.492;11.372;2022-10-31T04:30:21;19.80;49.20
18085;DHT22;9169;44.492;11.372;2022-10-31T04:32:48;19.80;49.10
18085;DHT22;9169;44.492;11.372;2022-10-31T04:35:16;19.80;49.20
18085;DHT22;9169;44.492;11.372;2022-10-31T04:37:43;19.80;49.10
18085;DHT22;9169;44.492;11.372;2022-10-31T04:40:11;19.80;49.10
18085;DHT22;9169;44.492;11.372;2022-10-31T04:42:38;19.80;49.20
18085;DHT22;9169;44.492;11.372;2022-10-31T04:45:06;19.80;49.20
18085;DHT22;9169;44.492;11.372;2022-10-31T04:47:33;19.80;49.20
18085;DHT22;9169;44.492;11.372;2022-10-31T04:50:00;19.80;49.20
18085;DHT22;9169;44.492;11.372;2022-10-31T04:52:29;19.80;49.20
18085;DHT22;9169;44.492;11.372;2022-10-31T04:54:56;19.80;49.20
18085;DHT22;9169;44.492;11.372;2022-10-31T04:57:23;19.80;49.30
18085;DHT22;9169;44.492;11.372;2022-10-31T04:59:50;19.70;49.30
18085;DHT22;9169;44.492;11.372;2022-10-31T05:02:17;19.70;49.40
18085;DHT22;9169;44.492;11.372;2022-10-31T05:04:44;19.70;49.30
18085;DHT22;9169;44.492;11.372;2022-10-31T05:07:11;19.70;49.20
18085;DHT22;9169;44.492;11.372;2022-10-31T05:09:39;19.70;49.20
18085;DHT22;9169;44.492;11.372;2022-10-31T05:12:06;19.60;49.10
18085;DHT22;9169;44.492;11.372;2022-10-31T05:14:33;19.60;49.00
18085;DHT22;9169;44.492;11.372;2022-10-31T05:17:00;19.60;49.00
18085;DHT22;9169;44.492;11.372;2022-10-31T05:19:27;19.60;49.00
18085;DHT22;9169;44.492;11.372;2022-10-31T05:21:54;19.50;48.90
18085;DHT22;9169;44.492;11.372;2022-10-31T05:24:21;19.50;48.90
18085;DHT22;9169;44.492;11.372;2022-10-31T05:26:50;19.50;48.80
18085;DHT22;9169;44.492;11.372;2022-10-31T05:29:17;19.50;48.90
18085;DHT22;9169;44.492;11.372;2022-10-31T05:31:44;19.50;48.90
18085;DHT22;9169;44.492;11.372;2022-10-31T05:34:11;19.50;48.80
18085;DHT22;9169;44.492;11.372;2022-10-31T05:36:38;19.40;48.80
18085;DHT22;9169;44.492;11.372;2022-10-31T05:39:05;19.50;48.80
18085;DHT22;9169;44.492;11.372;2022-10-31T05:41:32;19.40;48.70
18085;DHT22;9169;44.492;11.372;2022-10-31T05:44:00;19.40;48.70
18085;DHT22;9169;44.492;11.372;2022-10-31T05:46:27;19.40;48.70
18085;DHT22;9169;44.492;11.372;2022-10-31T05:48:54;19.40;48.70
18085;DHT22;9169;44.492;11.372;2022-10-31T05:51:21;19.40;48.70
18085;DHT22;9169;44.492;11.372;2022-10-31T05:53:48;19.40;48.70
18085;DHT22;9169;44.492;11.372;2022-10-31T05:56:15;19.40;48.70
18085;DHT22;9169;44.492;11.372;2022-10-31T05:58:42;19.40;48.80
18085;DHT22;9169;44.492;11.372;2022-10-31T06:01:10;19.40;48.80
18085;DHT22;9169;44.492;11.372;2022-10-31T06:03:37;19.40;48.80
18085;DHT22;9169;44.492;11.372;2022-10-31T06:06:05;19.40;48.80
18085;DHT22;9169;44.492;11.372;2022-10-31T06:08:32;19.40;48.80
18085;DHT22;9169;44.492;11.372;2022-10-31T06:10:59;19.40;48.90
18085;DHT22;9169;44.492;11.372;2022-10-31T06:13:26;19.40;48.90
18085;DHT22;9169;44.492;11.372;2022-10-31T06:15:53;19.40;48.90
18085;DHT22;9169;44.492;11.372;2022-10-31T06:18:21;19.40;49.00
18085;DHT22;9169;44.492;11.372;2022-10-31T06:20:48;19.40;49.00
18085;DHT22;9169;44.492;11.372;2022-10-31T06:23:15;19.40;49.00
18085;DHT22;9169;44.492;11.372;2022-10-31T06:25:42;19.40;49.10
18085;DHT22;9169;44.492;11.372;2022-10-31T06:28:09;19.50;49.30
18085;DHT22;9169;44.492;11.372;2022-10-31T06:30:36;19.40;49.30
18085;DHT22;9169;44.492;11.372;2022-10-31T06:33:02;19.40;49.20
18085;DHT22;9169;44.492;11.372;2022-10-31T06:35:31;19.50;49.10
18085;DHT22;9169;44.492;11.372;2022-10-31T06:37:58;19.50;49.00
18085;DHT22;9169;44.492;11.372;2022-10-31T06:40:25;19.40;49.20
18085;DHT22;9169;44.492;11.372;2022-10-31T06:42:58;19.40;49.10
18085;DHT22;9169;44.492;11.372;2022-10-31T06:45:25;19.50;49.00
18085;DHT22;9169;44.492;11.372;2022-10-31T06:47:53;19.30;49.10
18085;DHT22;9169;44.492;11.372;2022-10-31T06:50:20;19.40;49.10
18085;DHT22;9169;44.492;11.372;2022-10-31T06:52:52;19.40;49.10
18085;DHT22;9169;44.492;11.372;2022-10-31T06:55:19;19.40;49.10
18085;DHT22;9169;44.492;11.372;2022-10-31T06:57:51;19.50;49.20
18085;DHT22;9169;44.492;11.372;2022-10-31T07:00:18;19.50;49.30
18085;DHT22;9169;44.492;11.372;2022-10-31T07:02:53;19.60;49.30
18085;DHT22;9169;44.492;11.372;2022-10-31T07:05:20;19.60;49.40
18085;DHT22;9169;44.492;11.372;2022-10-31T07:07:47;19.70;49.50
18085;DHT22;9169;44.492;11.372;2022-10-31T07:10:15;19.70;49.50
18085;DHT22;9169;44.492;11.372;2022-10-31T07:12:42;19.70;49.60
18085;DHT22;9169;44.492;11.372;2022-10-31T07:15:10;19.80;49.70
18085;DHT22;9169;44.492;11.372;2022-10-31T07:17:36;19.80;49.60
18085;DHT22;9169;44.492;11.372;2022-10-31T07:20:05;19.80;49.70
18085;DHT22;9169;44.492;11.372;2022-10-31T07:22:33;19.80;49.70
18085;DHT22;9169;44.492;11.372;2022-10-31T07:25:01;19.80;49.70
18085;DHT22;9169;44.492;11.372;2022-10-31T07:27:34;19.90;49.80
18085;DHT22;9169;44.492;11.372;2022-10-31T07:30:01;19.90;49.80
18085;DHT22;9169;44.492;11.372;2022-10-31T07:32:37;19.90;49.90
18085;DHT22;9169;44.492;11.372;2022-10-31T07:35:04;19.90;50.40
18085;DHT22;9169;44.492;11.372;2022-10-31T07:37:31;19.90;50.50
18085;DHT22;9169;44.492;11.372;2022-10-31T07:39:58;20.00;50.80
18085;DHT22;9169;44.492;11.372;2022-10-31T07:42:25;20.00;50.70
18085;DHT22;9169;44.492;11.372;2022-10-31T07:44:54;20.00;50.80
18085;DHT22;9169;44.492;11.372;2022-10-31T07:47:20;20.00;50.90
18085;DHT22;9169;44.492;11.372;2022-10-31T07:49:48;20.20;51.40
18085;DHT22;9169;44.492;11.372;2022-10-31T07:52:15;20.30;52.00
18085;DHT22;9169;44.492;11.372;2022-10-31T07:54:42;20.50;51.50
18085;DHT22;9169;44.492;11.372;2022-10-31T07:57:09;20.70;51.10
18085;DHT22;9169;44.492;11.372;2022-10-31T07:59:36;20.80;50.90
18085;DHT22;9169;44.492;11.372;2022-10-31T08:02:04;20.90;50.60
18085;DHT22;9169;44.492;11.372;2022-10-31T08:04:31;21.00;50.70
18085;DHT22;9169;44.492;11.372;2022-10-31T08:06:58;21.20;50.60
18085;DHT22;9169;44.492;11.372;2022-10-31T08:09:25;21.30;50.40
18085;DHT22;9169;44.492;11.372;2022-10-31T08:11:53;21.40;50.30
18085;DHT22;9169;44.492;11.372;2022-10-31T08:14:20;21.50;50.10
18085;DHT22;9169;44.492;11.372;2022-10-31T08:16:47;21.50;50.10
18085;DHT22;9169;44.492;11.372;2022-10-31T08:19:15;21.60;50.20
18085;DHT22;9169;44.492;11.372;2022-10-31T08:21:42;21.60;50.10
18085;DHT22;9169;44.492;11.372;2022-10-31T08:24:09;21.60;50.00
18085;DHT22;9169;44.492;11.372;2022-10-31T08:26:36;21.50;48.50
18085;DHT22;9169;44.492;11.372;2022-10-31T08:29:03;21.60;49.20
18085;DHT22;9169;44.492;11.372;2022-10-31T08:31:30;21.70;49.60
18085;DHT22;9169;44.492;11.372;2022-10-31T08:33:57;21.80;49.70
18085;DHT22;9169;44.492;11.372;2022-10-31T08:36:27;22.00;49.70
18085;DHT22;9169;44.492;11.372;2022-10-31T08:38:55;22.20;49.40
18085;DHT22;9169;44.492;11.372;2022-10-31T08:41:22;22.30;49.20
18085;DHT22;9169;44.492;11.372;2022-10-31T08:43:49;22.30;48.90
18085;DHT22;9169;44.492;11.372;2022-10-31T08:46:16;22.30;48.60
18085;DHT22;9169;44.492;11.372;2022-10-31T08:48:43;22.30;48.40
18085;DHT22;9169;44.492;11.372;2022-10-31T08:51:11;22.30;48.20
18085;DHT22;9169;44.492;11.372;2022-10-31T08:53:39;22.30;48.00
18085;DHT22;9169;44.492;11.372;2022-10-31T08:56:06;22.20;47.90
18085;DHT22;9169;44.492;11.372;2022-10-31T08:58:33;22.20;47.90
18085;DHT22;9169;44.492;11.372;2022-10-31T09:01:01;22.20;47.90
18085;DHT22;9169;44.492;11.372;2022-10-31T09:03:30;22.20;47.80
18085;DHT22;9169;44.492;11.372;2022-10-31T09:05:58;22.20;47.90
18085;DHT22;9169;44.492;11.372;2022-10-31T09:08:26;22.20;47.90
18085;DHT22;9169;44.492;11.372;2022-10-31T09:10:56;22.20;47.80
18085;DHT22;9169;44.492;11.372;2022-10-31T09:13:23;22.20;47.80
18085;DHT22;9169;44.492;11.372;2022-10-31T09:15:51;22.20;47.80
18085;DHT22;9169;44.492;11.372;2022-10-31T09:18:19;22.20;47.80
18085;DHT22;9169;44.492;11.372;2022-10-31T09:20:47;22.20;47.70
18085;DHT22;9169;44.492;11.372;2022-10-31T09:23:16;22.20;47.70
18085;DHT22;9169;44.492;11.372;2022-10-31T09:25:44;22.20;47.70
18085;DHT22;9169;44.492;11.372;2022-10-31T09:28:14;22.20;48.20
18085;DHT22;9169;44.492;11.372;2022-10-31T09:30:46;22.20;47.70
18085;DHT22;9169;44.492;11.372;2022-10-31T09:33:14;22.30;48.20
18085;DHT22;9169;44.492;11.372;2022-10-31T09:35:41;22.30;48.10
18085;DHT22;9169;44.492;11.372;2022-10-31T09:38:10;22.30;48.00
18085;DHT22;9169;44.492;11.372;2022-10-31T09:40:39;22.40;48.10
18085;DHT22;9169;44.492;11.372;2022-10-31T09:43:14;22.40;48.00
18085;DHT22;9169;44.492;11.372;2022-10-31T09:45:53;22.40;47.70
18085;DHT22;9169;44.492;11.372;2022-10-31T09:48:31;22.40;47.70
18085;DHT22;9169;44.492;11.372;2022-10-31T09:51:05;22.40;47.80
18085;DHT22;9169;44.492;11.372;2022-10-31T09:53:37;22.50;47.70
18085;DHT22;9169;44.492;11.372;2022-10-31T09:56:07;22.50;47.50
18085;DHT22;9169;44.492;11.372;2022-10-31T09:58:41;22.60;47.50
18085;DHT22;9169;44.492;11.372;2022-10-31T10:01:25;22.60;47.40
18085;DHT22;9169;44.492;11.372;2022-10-31T10:03:56;22.60;47.40
18085;DHT22;9169;44.492;11.372;2022-10-31T10:06:28;22.60;47.40
18085;DHT22;9169;44.492;11.372;2022-10-31T10:08:56;22.70;47.50
18085;DHT22;9169;44.492;11.372;2022-10-31T10:11:36;22.70;47.50
18085;DHT22;9169;44.492;11.372;2022-10-31T10:14:25;22.70;47.50
18085;DHT22;9169;44.492;11.372;2022-10-31T10:17:22;22.70;47.20
18085;DHT22;9169;44.492;11.372;2022-10-31T10:20:12;22.80;47.50
18085;DHT22;9169;44.492;11.372;2022-10-31T10:22:45;22.80;47.30
18085;DHT22;9169;44.492;11.372;2022-10-31T10:25:15;22.90;47.60
18085;DHT22;9169;44.492;11.372;2022-10-31T10:27:46;22.90;47.90
18085;DHT22;9169;44.492;11.372;2022-10-31T10:30:17;23.00;48.20
18085;DHT22;9169;44.492;11.372;2022-10-31T10:32:45;23.10;48.40
18085;DHT22;9169;44.492;11.372;2022-10-31T10:35:17;23.20;48.60
18085;DHT22;9169;44.492;11.372;2022-10-31T10:37:46;23.20;48.60
18085;DHT22;9169;44.492;11.372;2022-10-31T10:40:13;23.30;48.80
18085;DHT22;9169;44.492;11.372;2022-10-31T10:42:43;23.30;48.80
18085;DHT22;9169;44.492;11.372;2022-10-31T10:45:30;23.40;48.70
18085;DHT22;9169;44.492;11.372;2022-10-31T10:48:15;23.40;48.80
18085;DHT22;9169;44.492;11.372;2022-10-31T10:50:44;23.40;48.80
18085;DHT22;9169;44.492;11.372;2022-10-31T10:53:28;23.40;48.90
18085;DHT22;9169;44.492;11.372;2022-10-31T10:56:10;23.30;47.00
18085;DHT22;9169;44.492;11.372;2022-10-31T10:58:38;23.40;47.80
18085;DHT22;9169;44.492;11.372;2022-10-31T11:01:12;23.40;47.80
18085;DHT22;9169;44.492;11.372;2022-10-31T11:03:39;23.50;48.00
18085;DHT22;9169;44.492;11.372;2022-10-31T11:06:17;23.50;48.50
18085;DHT22;9169;44.492;11.372;2022-10-31T11:08:48;23.50;47.70
18085;DHT22;9169;44.492;11.372;2022-10-31T11:11:24;23.60;47.90
18085;DHT22;9169;44.492;11.372;2022-10-31T11:13:55;23.60;47.80
18085;DHT22;9169;44.492;11.372;2022-10-31T11:16:29;23.70;48.30
18085;DHT22;9169;44.492;11.372;2022-10-31T11:19:04;23.70;48.40
18085;DHT22;9169;44.492;11.372;2022-10-31T11:21:33;23.80;48.70
18085;DHT22;9169;44.492;11.372;2022-10-31T11:24:03;23.80;48.80
18085;DHT22;9169;44.492;11.372;2022-10-31T11:26:31;23.90;48.90
18085;DHT22;9169;44.492;11.372;2022-10-31T11:29:00;23.90;49.00
18085;DHT22;9169;44.492;11.372;2022-10-31T11:31:29;24.00;49.10
18085;DHT22;9169;44.492;11.372;2022-10-31T11:33:58;24.00;49.20
18085;DHT22;9169;44.492;11.372;2022-10-31T11:36:27;24.10;49.20
18085;DHT22;9169;44.492;11.372;2022-10-31T11:38:55;24.10;49.40
18085;DHT22;9169;44.492;11.372;2022-10-31T11:41:24;24.20;49.30
18085;DHT22;9169;44.492;11.372;2022-10-31T11:43:53;24.20;49.40
18085;DHT22;9169;44.492;11.372;2022-10-31T11:46:22;24.30;49.20
18085;DHT22;9169;44.492;11.372;2022-10-31T11:48:53;24.40;49.40
18085;DHT22;9169;44.492;11.372;2022-10-31T11:51:20;24.30;49.40
18085;DHT22;9169;44.492;11.372;2022-10-31T11:53:50;24.40;49.50
18085;DHT22;9169;44.492;11.372;2022-10-31T11:56:17;24.40;49.50
18085;DHT22;9169;44.492;11.372;2022-10-31T11:58:54;24.50;49.60
18085;DHT22;9169;44.492;11.372;2022-10-31T12:01:24;24.50;49.60
18085;DHT22;9169;44.492;11.372;2022-10-31T12:03:54;24.60;49.70
18085;DHT22;9169;44.492;11.372;2022-10-31T12:06:23;24.60;49.60
18085;DHT22;9169;44.492;11.372;2022-10-31T12:08:50;24.60;49.50
18085;DHT22;9169;44.492;11.372;2022-10-31T12:11:36;24.70;49.50
18085;DHT22;9169;44.492;11.372;2022-10-31T12:14:10;24.80;49.70
18085;DHT22;9169;44.492;11.372;2022-10-31T12:16:39;24.80;49.70
18085;DHT22;9169;44.492;11.372;2022-10-31T12:19:12;24.80;49.70
18085;DHT22;9169;44.492;11.372;2022-10-31T12:24:31;25.00;49.70
18085;DHT22;9169;44.492;11.372;2022-10-31T12:27:02;25.10;49.80
18085;DHT22;9169;44.492;11.372;2022-10-31T12:29:37;25.10;49.70
18085;DHT22;9169;44.492;11.372;2022-10-31T12:32:15;25.20;49.80
18085;DHT22;9169;44.492;11.372;2022-10-31T12:34:57;25.30;49.90
18085;DHT22;9169;44.492;11.372;2022-10-31T12:37:30;25.30;49.80
18085;DHT22;9169;44.492;11.372;2022-10-31T12:40:04;25.40;49.70
18085;DHT22;9169;44.492;11.372;2022-10-31T12:42:38;25.40;49.60
18085;DHT22;9169;44.492;11.372;2022-10-31T12:48:07;25.70;49.70
18085;DHT22;9169;44.492;11.372;2022-10-31T12:50:43;26.00;49.60
18085;DHT22;9169;44.492;11.372;2022-10-31T12:53:18;26.10;49.40
18085;DHT22;9169;44.492;11.372;2022-10-31T12:55:50;26.30;49.30
18085;DHT22;9169;44.492;11.372;2022-10-31T12:58:24;26.30;49.10
18085;DHT22;9169;44.492;11.372;2022-10-31T13:00:55;26.30;49.20
18085;DHT22;9169;44.492;11.372;2022-10-31T13:03:27;26.30;49.10
18085;DHT22;9169;44.492;11.372;2022-10-31T13:05:58;26.30;49.20
18085;DHT22;9169;44.492;11.372;2022-10-31T13:08:26;26.40;50.20
18085;DHT22;9169;44.492;11.372;2022-10-31T13:10:55;26.70;51.30
18085;DHT22;9169;44.492;11.372;2022-10-31T13:13:32;27.10;51.60
18085;DHT22;9169;44.492;11.372;2022-10-31T13:16:03;27.30;44.20
18085;DHT22;9169;44.492;11.372;2022-10-31T13:18:35;27.80;46.90
18085;DHT22;9169;44.492;11.372;2022-10-31T13:21:10;28.20;46.20
18085;DHT22;9169;44.492;11.372;2022-10-31T13:23:39;28.50;45.60
18085;DHT22;9169;44.492;11.372;2022-10-31T13:26:09;28.80;45.40
18085;DHT22;9169;44.492;11.372;2022-10-31T13:28:40;28.90;45.20
18085;DHT22;9169;44.492;11.372;2022-10-31T13:31:10;29.10;44.70
18085;DHT22;9169;44.492;11.372;2022-10-31T13:33:37;29.30;46.60
18085;DHT22;9169;44.492;11.372;2022-10-31T13:36:10;29.60;48.50
18085;DHT22;9169;44.492;11.372;2022-10-31T13:38:40;30.10;49.40
18085;DHT22;9169;44.492;11.372;2022-10-31T13:41:17;30.40;49.60
18085;DHT22;9169;44.492;11.372;2022-10-31T13:43:59;30.50;41.80
18085;DHT22;9169;44.492;11.372;2022-10-31T13:46:36;30.70;42.90
18085;DHT22;9169;44.492;11.372;2022-10-31T13:49:04;30.70;42.20
18085;DHT22;9169;44.492;11.372;2022-10-31T13:51:33;30.50;42.00
18085;DHT22;9169;44.492;11.372;2022-10-31T13:54:01;30.40;43.80
18085;DHT22;9169;44.492;11.372;2022-10-31T13:56:34;30.20;44.30
18085;DHT22;9169;44.492;11.372;2022-10-31T13:59:11;30.00;44.40
18085;DHT22;9169;44.492;11.372;2022-10-31T14:01:45;29.80;44.50
18085;DHT22;9169;44.492;11.372;2022-10-31T14:04:14;29.60;44.80
18085;DHT22;9169;44.492;11.372;2022-10-31T14:06:45;29.40;44.80
18085;DHT22;9169;44.492;11.372;2022-10-31T14:09:22;29.10;44.90
18085;DHT22;9169;44.492;11.372;2022-10-31T14:11:49;28.90;45.00
18085;DHT22;9169;44.492;11.372;2022-10-31T14:14:17;28.80;45.10
18085;DHT22;9169;44.492;11.372;2022-10-31T14:16:44;28.60;45.30
18085;DHT22;9169;44.492;11.372;2022-10-31T14:19:16;28.50;45.40
18085;DHT22;9169;44.492;11.372;2022-10-31T14:21:45;28.40;45.50
18085;DHT22;9169;44.492;11.372;2022-10-31T14:24:28;28.30;45.60
18085;DHT22;9169;44.492;11.372;2022-10-31T14:26:56;28.20;45.70
18085;DHT22;9169;44.492;11.372;2022-10-31T14:29:25;28.00;45.70
18085;DHT22;9169;44.492;11.372;2022-10-31T14:31:53;27.90;45.60
18085;DHT22;9169;44.492;11.372;2022-10-31T14:34:22;27.80;45.70
18085;DHT22;9169;44.492;11.372;2022-10-31T14:36:54;27.70;45.80
18085;DHT22;9169;44.492;11.372;2022-10-31T14:39:24;27.60;45.90
18085;DHT22;9169;44.492;11.372;2022-10-31T14:41:57;27.60;46.00
18085;DHT22;9169;44.492;11.372;2022-10-31T14:47:27;27.40;46.10
18085;DHT22;9169;44.492;11.372;2022-10-31T14:50:03;27.30;46.10
18085;DHT22;9169;44.492;11.372;2022-10-31T14:52:33;27.20;46.20
18085;DHT22;9169;44.492;11.372;2022-10-31T14:55:01;27.10;46.20
18085;DHT22;9169;44.492;11.372;2022-10-31T14:57:32;27.00;46.10
18085;DHT22;9169;44.492;11.372;2022-10-31T15:00:00;26.90;46.10
18085;DHT22;9169;44.492;11.372;2022-10-31T15:02:30;26.90;46.30
18085;DHT22;9169;44.492;11.372;2022-10-31T15:04:59;26.80;46.30
18085;DHT22;9169;44.492;11.372;2022-10-31T15:07:27;26.70;46.40
18085;DHT22;9169;44.492;11.372;2022-10-31T15:09:59;26.70;46.50
18085;DHT22;9169;44.492;11.372;2022-10-31T15:12:27;26.60;46.50
18085;DHT22;9169;44.492;11.372;2022-10-31T15:14:54;26.50;46.40
18085;DHT22;9169;44.492;11.372;2022-10-31T15:17:21;26.50;46.50
18085;DHT22;9169;44.492;11.372;2022-10-31T15:19:48;26.40;46.50
18085;DHT22;9169;44.492;11.372;2022-10-31T15:22:16;26.30;46.60
18085;DHT22;9169;44.492;11.372;2022-10-31T15:24:43;26.30;46.60
18085;DHT22;9169;44.492;11.372;2022-10-31T15:27:16;26.20;46.60
18085;DHT22;9169;44.492;11.372;2022-10-31T15:29:47;26.10;46.60
18085;DHT22;9169;44.492;11.372;2022-10-31T15:32:17;26.00;46.60
18085;DHT22;9169;44.492;11.372;2022-10-31T15:34:45;26.00;46.60
18085;DHT22;9169;44.492;11.372;2022-10-31T15:37:12;25.90;46.60
18085;DHT22;9169;44.492;11.372;2022-10-31T15:39:40;25.90;46.70
18085;DHT22;9169;44.492;11.372;2022-10-31T15:42:14;25.80;46.70
18085;DHT22;9169;44.492;11.372;2022-10-31T15:44:44;25.80;46.70
18085;DHT22;9169;44.492;11.372;2022-10-31T15:47:15;25.60;46.70
18085;DHT22;9169;44.492;11.372;2022-10-31T15:49:46;25.60;46.70
18085;DHT22;9169;44.492;11.372;2022-10-31T15:52:14;25.50;46.70
18085;DHT22;9169;44.492;11.372;2022-10-31T15:54:44;25.50;46.80
18085;DHT22;9169;44.492;11.372;2022-10-31T15:57:11;25.40;46.80